Time;durP1;ratioP1;P1;durP2;ratioP2;P2;SDS_P1;SDS_P2;PMS_P1;PMS_P2;Temp;Humidity;BMP_temperature;BMP_pressure;BME280_temperature;BME280_humidity;BME280_pressure;Samples;Min_cycle;Max_cycle;Signal;HPM_P1;HPM_P2
2021/06/17 00:01:13;;;;;;;8.67;6.90;;;;;;;;;;5138458;28;20203;-69
2021/06/17 00:03:40;;;;;;;14.57;6.40;;;;;;;;;;5138857;28;20216;-69
2021/06/17 00:06:08;;;;;;;11.43;7.00;;;;;;;;;;5138083;28;20749;-68
2021/06/17 00:08:36;;;;;;;9.00;6.23;;;;;;;;;;5138690;28;20207;-69
2021/06/17 00:11:04;;;;;;;6.83;5.87;;;;;;;;;;5138297;28;20270;-68
2021/06/17 00:13:33;;;;;;;6.83;5.73;;;;;;;;;;5131424;28;20202;-69
2021/06/17 00:16:02;;;;;;;7.43;5.47;;;;;;;;;;5138724;28;20210;-69
2021/06/17 00:18:31;;;;;;;6.13;5.23;;;;;;;;;;5138744;28;20210;-70
2021/06/17 00:21:02;;;;;;;5.00;4.60;;;;;;;;;;5138170;28;20204;-69
2021/06/17 00:23:30;;;;;;;5.57;5.17;;;;;;;;;;5138827;28;20231;-69
2021/06/17 00:25:58;;;;;;;5.83;5.23;;;;;;;;;;5138404;28;20227;-70
2021/06/17 00:28:26;;;;;;;5.80;5.27;;;;;;;;;;5132845;28;20231;-70
2021/06/17 00:30:54;;;;;;;5.63;5.00;;;;;;;;;;5137588;27;20699;-69
2021/06/17 00:33:22;;;;;;;6.77;4.97;;;;;;;;;;5140857;27;20243;-68
2021/06/17 00:35:51;;;;;;;6.20;4.60;;;;;;;;;;5141390;27;20205;-69
2021/06/17 00:38:19;;;;;;;7.87;5.50;;;;;;;;;;5141557;27;20251;-69
2021/06/17 00:40:47;;;;;;;5.57;4.90;;;;;;;;;;5141847;27;20250;-69
2021/06/17 00:43:14;;;;;;;5.40;4.90;;;;;;;;;;5141716;27;20249;-69
2021/06/17 00:45:44;;;;;;;4.63;4.33;;;;;;;;;;5142070;27;20206;-68
2021/06/17 00:48:12;;;;;;;5.50;4.57;;;;;;;;;;5141977;27;20205;-69
2021/06/17 00:50:41;;;;;;;5.37;4.63;;;;;;;;;;5138750;27;20258;-69
2021/06/17 00:53:11;;;;;;;6.37;5.43;;;;;;;;;;5141344;27;20223;-69
2021/06/17 00:55:40;;;;;;;5.43;4.93;;;;;;;;;;5141691;27;20200;-69
2021/06/17 00:58:08;;;;;;;6.13;5.20;;;;;;;;;;5141075;27;20196;-68
2021/06/17 01:00:36;;;;;;;5.13;4.63;;;;;;;;;;5140820;27;20253;-69
2021/06/17 01:03:04;;;;;;;5.63;5.10;;;;;;;;;;5141367;27;20223;-68
2021/06/17 01:05:32;;;;;;;7.30;4.90;;;;;;;;;;5141217;27;20200;-69
2021/06/17 01:08:12;;;;;;;5.60;4.77;;;;;;;;;;5141040;27;20204;-71
2021/06/17 01:10:46;;;;;;;4.60;4.20;;;;;;;;;;5141098;27;20247;-69
2021/06/17 01:13:16;;;;;;;6.60;4.50;;;;;;;;;;5133291;27;20226;-69
2021/06/17 01:16:07;;;;;;;5.33;4.63;;;;;;;;;;5140638;27;20211;-68
2021/06/17 01:18:36;;;;;;;5.70;4.30;;;;;;;;;;5140350;27;20209;-69
2021/06/17 01:21:08;;;;;;;4.93;4.53;;;;;;;;;;5139995;27;20201;-69
2021/06/17 01:23:52;;;;;;;5.13;4.73;;;;;;;;;;5140311;27;20207;-68
2021/06/17 01:26:25;;;;;;;4.90;4.50;;;;;;;;;;5140549;27;20257;-68
2021/06/17 01:28:55;;;;;;;5.23;4.73;;;;;;;;;;5141008;27;20211;-69
2021/06/17 01:31:25;;;;;;;5.17;4.67;;;;;;;;;;5140350;27;20231;-69
2021/06/17 01:33:53;;;;;;;6.53;4.77;;;;;;;;;;5141002;27;20207;-69
2021/06/17 01:36:24;;;;;;;6.77;4.70;;;;;;;;;;5140848;27;20561;-69
2021/06/17 01:38:54;;;;;;;5.43;4.37;;;;;;;;;;5141356;27;20214;-69
2021/06/17 01:41:23;;;;;;;5.03;4.53;;;;;;;;;;5140702;27;20222;-69
2021/06/17 01:43:51;;;;;;;5.07;4.57;;;;;;;;;;5140468;27;20558;-69
2021/06/17 01:46:21;;;;;;;10.33;5.13;;;;;;;;;;5140612;27;20228;-69
2021/06/17 01:48:49;;;;;;;5.07;4.50;;;;;;;;;;5140254;27;20238;-69
2021/06/17 01:51:19;;;;;;;5.93;5.07;;;;;;;;;;5139898;27;20253;-69
2021/06/17 01:53:47;;;;;;;4.80;4.40;;;;;;;;;;5140246;27;20662;-70
2021/06/17 01:56:16;;;;;;;5.10;4.30;;;;;;;;;;5140096;27;20204;-70
2021/06/17 01:58:45;;;;;;;5.10;4.70;;;;;;;;;;5140193;27;20239;-69
2021/06/17 02:01:13;;;;;;;5.10;4.63;;;;;;;;;;5140502;27;20563;-69
2021/06/17 02:03:43;;;;;;;7.00;4.67;;;;;;;;;;5140406;27;20206;-69
2021/06/17 02:06:11;;;;;;;5.37;4.80;;;;;;;;;;5140283;27;20253;-69
2021/06/17 02:08:39;;;;;;;4.57;4.17;;;;;;;;;;5140740;27;20203;-69
2021/06/17 02:11:07;;;;;;;5.93;5.40;;;;;;;;;;5140444;27;20223;-69
2021/06/17 02:13:35;;;;;;;8.03;4.30;;;;;;;;;;5133430;27;20203;-69
2021/06/17 02:16:04;;;;;;;5.00;4.60;;;;;;;;;;5140286;27;20204;-69
2021/06/17 02:18:33;;;;;;;5.60;5.00;;;;;;;;;;5140004;27;20204;-70
2021/06/17 02:21:03;;;;;;;4.37;4.07;;;;;;;;;;5139826;27;20199;-69
2021/06/17 02:23:32;;;;;;;6.57;4.53;;;;;;;;;;5139935;27;20214;-69
2021/06/17 02:26:01;;;;;;;5.13;4.57;;;;;;;;;;5139744;27;20205;-70
2021/06/17 02:28:31;;;;;;;5.67;5.10;;;;;;;;;;5139420;27;20211;-69
2021/06/17 02:31:00;;;;;;;5.17;4.77;;;;;;;;;;5139849;27;20204;-70
2021/06/17 02:33:28;;;;;;;5.40;4.90;;;;;;;;;;5139314;27;20236;-69
2021/06/17 02:35:56;;;;;;;5.20;4.67;;;;;;;;;;5139709;27;20232;-70
2021/06/17 02:38:29;;;;;;;5.43;4.97;;;;;;;;;;5139689;27;20207;-70
2021/06/17 02:40:58;;;;;;;5.60;5.10;;;;;;;;;;5139583;27;20211;-69
2021/06/17 02:43:26;;;;;;;4.93;4.43;;;;;;;;;;5139734;27;20583;-70
2021/06/17 02:45:55;;;;;;;5.10;4.60;;;;;;;;;;5139710;27;20231;-69
2021/06/17 02:48:23;;;;;;;5.03;4.53;;;;;;;;;;5139629;27;20211;-70
2021/06/17 02:50:51;;;;;;;5.30;4.67;;;;;;;;;;5139364;27;20207;-69
2021/06/17 02:53:19;;;;;;;6.70;4.33;;;;;;;;;;5139480;27;20220;-70
2021/06/17 02:55:49;;;;;;;4.87;4.37;;;;;;;;;;5137960;27;20208;-70
2021/06/17 02:58:23;;;;;;;5.13;4.60;;;;;;;;;;5139154;27;20256;-70
2021/06/17 03:00:53;;;;;;;5.53;4.60;;;;;;;;;;5139428;27;20203;-69
2021/06/17 03:03:24;;;;;;;5.40;4.90;;;;;;;;;;5139481;27;20242;-70
2021/06/17 03:05:56;;;;;;;7.00;4.93;;;;;;;;;;5139322;27;20206;-70
2021/06/17 03:08:27;;;;;;;5.33;4.83;;;;;;;;;;5139516;27;20202;-70
2021/06/17 03:10:59;;;;;;;4.63;4.23;;;;;;;;;;5139053;27;20203;-70
2021/06/17 03:13:28;;;;;;;5.23;4.73;;;;;;;;;;5132330;27;20259;-70
2021/06/17 03:15:56;;;;;;;5.77;4.70;;;;;;;;;;5139274;27;20251;-70
2021/06/17 03:18:24;;;;;;;4.77;4.30;;;;;;;;;;5138993;27;20211;-70
2021/06/17 03:20:53;;;;;;;7.00;4.60;;;;;;;;;;5138336;27;20201;-70
2021/06/17 03:23:22;;;;;;;4.70;4.30;;;;;;;;;;5138463;27;20202;-70
2021/06/17 03:25:51;;;;;;;8.37;4.83;;;;;;;;;;5138394;27;20201;-70
2021/06/17 03:28:21;;;;;;;5.40;4.90;;;;;;;;;;5138565;27;20211;-69
2021/06/17 03:30:50;;;;;;;6.23;5.00;;;;;;;;;;5138625;27;20262;-70
2021/06/17 03:33:19;;;;;;;6.03;4.87;;;;;;;;;;5138319;27;20237;-70
2021/06/17 03:35:47;;;;;;;4.60;4.30;;;;;;;;;;5138438;27;20216;-70
2021/06/17 03:38:15;;;;;;;5.90;5.33;;;;;;;;;;5138730;27;20209;-70
2021/06/17 03:40:44;;;;;;;5.77;5.13;;;;;;;;;;5138946;27;20209;-69
2021/06/17 03:43:12;;;;;;;5.53;5.03;;;;;;;;;;5138370;27;20220;-70
2021/06/17 03:45:42;;;;;;;6.97;5.00;;;;;;;;;;5139381;28;20658;-70
2021/06/17 03:48:13;;;;;;;10.23;5.77;;;;;;;;;;5138994;28;20200;-69
2021/06/17 03:50:41;;;;;;;5.97;5.47;;;;;;;;;;5138535;28;20250;-69
2021/06/17 03:53:09;;;;;;;5.87;5.13;;;;;;;;;;5138722;28;20227;-69
2021/06/17 03:55:39;;;;;;;6.57;5.90;;;;;;;;;;5138570;28;20616;-69
2021/06/17 03:58:07;;;;;;;6.07;5.10;;;;;;;;;;5138806;28;20712;-69
2021/06/17 04:00:35;;;;;;;7.27;5.43;;;;;;;;;;5138891;28;20200;-69
2021/06/17 04:03:07;;;;;;;6.57;5.00;;;;;;;;;;5138697;28;20231;-69
2021/06/17 04:05:35;;;;;;;5.33;4.83;;;;;;;;;;5139326;27;20608;-69
2021/06/17 04:08:03;;;;;;;5.23;4.73;;;;;;;;;;5143110;27;20263;-70
2021/06/17 04:10:32;;;;;;;7.37;4.60;;;;;;;;;;5129558;27;20209;-65
2021/06/17 04:12:59;;;;;;;4.87;4.47;;;;;;;;;;5141996;27;20255;-65
2021/06/17 04:15:28;;;;;;;5.40;4.90;;;;;;;;;;5142513;27;20291;-65
2021/06/17 04:17:57;;;;;;;5.13;4.73;;;;;;;;;;5142909;27;20208;-65
2021/06/17 04:20:27;;;;;;;5.20;4.70;;;;;;;;;;5142656;27;20210;-65
2021/06/17 04:22:56;;;;;;;5.57;4.53;;;;;;;;;;5142748;27;20267;-65
2021/06/17 04:25:24;;;;;;;6.37;4.97;;;;;;;;;;5142986;27;20205;-65
2021/06/17 04:27:55;;;;;;;6.00;4.57;;;;;;;;;;5142937;27;20272;-65
2021/06/17 04:30:25;;;;;;;7.27;4.47;;;;;;;;;;5142559;27;20205;-65
2021/06/17 04:32:53;;;;;;;4.63;4.10;;;;;;;;;;5142119;27;20255;-65
2021/06/17 04:35:22;;;;;;;5.43;4.97;;;;;;;;;;5142248;27;20208;-66
2021/06/17 04:37:52;;;;;;;5.03;4.53;;;;;;;;;;5142410;27;20208;-66
2021/06/17 04:40:21;;;;;;;9.80;4.70;;;;;;;;;;5142430;27;20655;-66
2021/06/17 04:42:49;;;;;;;5.73;5.00;;;;;;;;;;5142131;27;20225;-65
2021/06/17 04:45:17;;;;;;;8.43;5.00;;;;;;;;;;5142202;27;20665;-65
2021/06/17 04:47:49;;;;;;;7.13;5.30;;;;;;;;;;5142240;27;20555;-65
2021/06/17 04:50:17;;;;;;;6.17;4.77;;;;;;;;;;5142087;27;20206;-65
2021/06/17 04:53:08;;;;;;;5.87;4.60;;;;;;;;;;5141985;27;20227;-65
2021/06/17 04:55:37;;;;;;;7.33;5.00;;;;;;;;;;5137257;27;20670;-64
2021/06/17 04:58:05;;;;;;;5.27;4.60;;;;;;;;;;5141171;27;20321;-65
2021/06/17 05:00:33;;;;;;;5.70;5.10;;;;;;;;;;5140995;27;20514;-65
2021/06/17 05:03:00;;;;;;;6.53;4.73;;;;;;;;;;5141168;27;20221;-65
2021/06/17 05:05:28;;;;;;;8.43;5.03;;;;;;;;;;5141150;27;20209;-65
2021/06/17 05:10:52;;;;;;;4.97;4.33;;;;;;;;;;5099448;27;20203;-64
2021/06/17 05:13:20;;;;;;;5.50;4.70;;;;;;;;;;5131000;27;20222;-65
2021/06/17 05:15:49;;;;;;;5.23;4.60;;;;;;;;;;5140038;27;20200;-66
2021/06/17 05:18:17;;;;;;;5.00;4.20;;;;;;;;;;5139879;27;20309;-65
2021/06/17 05:20:45;;;;;;;5.23;4.50;;;;;;;;;;5140352;27;20214;-65
2021/06/17 05:23:16;;;;;;;5.57;4.80;;;;;;;;;;5140720;27;20233;-65
2021/06/17 05:25:44;;;;;;;5.00;4.60;;;;;;;;;;5136373;27;20252;-65
2021/06/17 05:28:14;;;;;;;5.33;4.10;;;;;;;;;;5130831;27;20641;-65
2021/06/17 05:30:43;;;;;;;5.27;4.77;;;;;;;;;;5140489;27;20213;-65
2021/06/17 05:33:11;;;;;;;6.03;4.13;;;;;;;;;;5139914;27;20238;-65
2021/06/17 05:35:38;;;;;;;4.10;3.70;;;;;;;;;;5139893;27;20210;-65
2021/06/17 05:38:06;;;;;;;5.20;4.73;;;;;;;;;;5140016;27;20252;-66
2021/06/17 05:40:35;;;;;;;4.73;4.33;;;;;;;;;;5140083;27;20206;-65
2021/06/17 05:43:03;;;;;;;4.67;4.27;;;;;;;;;;5139984;27;20224;-65
2021/06/17 05:45:31;;;;;;;4.80;4.23;;;;;;;;;;5140049;27;20210;-65
2021/06/17 05:47:59;;;;;;;5.17;4.27;;;;;;;;;;5140359;27;20202;-65
2021/06/17 05:50:26;;;;;;;4.90;4.47;;;;;;;;;;5126145;27;20210;-65
2021/06/17 05:52:54;;;;;;;6.27;4.57;;;;;;;;;;5139849;27;20237;-65
2021/06/17 05:55:22;;;;;;;5.10;4.60;;;;;;;;;;5140105;27;20227;-66
2021/06/17 05:57:51;;;;;;;4.70;4.30;;;;;;;;;;5140027;27;20205;-65
2021/06/17 06:00:19;;;;;;;8.37;5.60;;;;;;;;;;5140170;27;20205;-67
2021/06/17 06:02:47;;;;;;;4.93;4.43;;;;;;;;;;5139974;27;20736;-66
2021/06/17 06:05:14;;;;;;;7.13;5.20;;;;;;;;;;5139846;27;20255;-66
2021/06/17 06:07:42;;;;;;;6.33;5.07;;;;;;;;;;5137828;27;20197;-68
2021/06/17 06:10:11;;;;;;;5.20;4.20;;;;;;;;;;5140088;27;20201;-68
2021/06/17 06:12:39;;;;;;;7.53;4.60;;;;;;;;;;5133600;27;20225;-67
2021/06/17 06:15:10;;;;;;;6.83;4.93;;;;;;;;;;5136407;27;20207;-68
2021/06/17 06:17:38;;;;;;;4.97;4.47;;;;;;;;;;5130965;27;20233;-68
2021/06/17 06:20:07;;;;;;;5.20;4.43;;;;;;;;;;5135609;27;20211;-67
2021/06/17 06:22:35;;;;;;;7.10;4.40;;;;;;;;;;5131066;27;20216;-67
2021/06/17 06:25:04;;;;;;;6.87;4.50;;;;;;;;;;5130227;27;20195;-68
2021/06/17 06:27:32;;;;;;;4.40;3.77;;;;;;;;;;5135077;27;20214;-67
2021/06/17 06:30:02;;;;;;;5.90;3.70;;;;;;;;;;5135012;27;20265;-67
2021/06/17 06:32:31;;;;;;;4.90;4.07;;;;;;;;;;5129368;27;20239;-67
2021/06/17 06:34:59;;;;;;;5.27;4.83;;;;;;;;;;5137383;27;20267;-67
2021/06/17 06:37:27;;;;;;;4.87;4.13;;;;;;;;;;5131788;27;20294;-67
2021/06/17 06:39:55;;;;;;;5.03;3.70;;;;;;;;;;5129575;27;20205;-67
2021/06/17 06:42:22;;;;;;;6.80;3.63;;;;;;;;;;5136168;27;20239;-66
2021/06/17 06:44:50;;;;;;;4.27;3.87;;;;;;;;;;5135782;27;20258;-67
2021/06/17 06:47:18;;;;;;;4.23;3.67;;;;;;;;;;5130977;27;20203;-66
2021/06/17 06:49:47;;;;;;;6.03;3.50;;;;;;;;;;5134547;27;20722;-69
2021/06/17 06:52:15;;;;;;;3.90;3.60;;;;;;;;;;5139029;27;20273;-71
2021/06/17 06:54:42;;;;;;;4.50;3.63;;;;;;;;;;5139148;27;20226;-70
2021/06/17 06:57:10;;;;;;;6.70;4.00;;;;;;;;;;5139383;27;20211;-68
2021/06/17 06:59:38;;;;;;;4.10;3.70;;;;;;;;;;5139655;27;20310;-68
2021/06/17 07:02:06;;;;;;;4.70;3.90;;;;;;;;;;5139603;27;20629;-66
2021/06/17 07:04:33;;;;;;;4.27;3.77;;;;;;;;;;5135826;27;20194;-70
2021/06/17 07:07:03;;;;;;;4.77;3.87;;;;;;;;;;5133502;27;20203;-73
2021/06/17 07:09:30;;;;;;;4.30;3.90;;;;;;;;;;5130519;27;20222;-68
2021/06/17 07:11:58;;;;;;;4.97;3.90;;;;;;;;;;5129616;27;20682;-68
2021/06/17 07:14:26;;;;;;;4.80;4.40;;;;;;;;;;5138858;27;20221;-67
2021/06/17 07:16:54;;;;;;;8.33;3.80;;;;;;;;;;5137497;27;20205;-67
2021/06/17 07:19:22;;;;;;;6.10;4.37;;;;;;;;;;5129515;27;20196;-68
2021/06/17 07:21:49;;;;;;;4.70;3.63;;;;;;;;;;5128935;27;20267;-70
2021/06/17 07:24:19;;;;;;;4.37;3.97;;;;;;;;;;5133552;27;20213;-68
2021/06/17 07:26:47;;;;;;;3.97;3.53;;;;;;;;;;5133253;27;20211;-69
2021/06/17 07:29:15;;;;;;;4.20;3.80;;;;;;;;;;5129960;27;20270;-68
2021/06/17 07:31:43;;;;;;;5.73;3.60;;;;;;;;;;5129562;27;20218;-72
2021/06/17 07:34:11;;;;;;;4.33;3.53;;;;;;;;;;5129875;27;20633;-72
2021/06/17 07:36:40;;;;;;;4.13;3.83;;;;;;;;;;5136239;27;20197;-72
2021/06/17 07:39:09;;;;;;;5.87;4.10;;;;;;;;;;5130314;28;20289;-71
2021/06/17 07:41:38;;;;;;;7.10;4.10;;;;;;;;;;5137956;27;20282;-70
2021/06/17 07:44:06;;;;;;;5.30;4.20;;;;;;;;;;5138535;27;20203;-71
2021/06/17 07:46:34;;;;;;;4.70;4.20;;;;;;;;;;5137753;28;20209;-71
2021/06/17 07:49:02;;;;;;;5.87;4.13;;;;;;;;;;5138066;28;20214;-70
2021/06/17 07:51:30;;;;;;;4.35;3.95;;;;;;;;;;5138299;28;20241;-70
2021/06/17 07:54:00;;;;;;;4.13;3.67;;;;;;;;;;5138373;28;20265;-70
2021/06/17 07:56:28;;;;;;;4.57;4.20;;;;;;;;;;5138790;28;20673;-70
2021/06/17 07:58:58;;;;;;;4.95;4.53;;;;;;;;;;5138633;28;20279;-71
2021/06/17 08:01:26;;;;;;;4.95;4.15;;;;;;;;;;5138435;28;20227;-72
2021/06/17 08:03:54;;;;;;;6.13;4.50;;;;;;;;;;5138864;28;20218;-70
2021/06/17 08:06:22;;;;;;;4.13;3.67;;;;;;;;;;5138382;28;20654;-71
2021/06/17 08:08:49;;;;;;;5.65;3.88;;;;;;;;;;5138467;28;20262;-70
2021/06/17 08:11:17;;;;;;;6.20;4.20;;;;;;;;;;5138351;28;20224;-70
2021/06/17 08:20:58;;;;;;;4.50;4.10;;;;;;;;;;5138137;28;20308;-72
2021/06/17 08:23:26;;;;;;;5.07;3.63;;;;;;;;;;5138736;28;20219;-71
2021/06/17 08:25:54;;;;;;;4.97;3.70;;;;;;;;;;5138306;28;20197;-71
2021/06/17 08:28:25;;;;;;;5.78;3.88;;;;;;;;;;5138185;28;20202;-71
2021/06/17 08:30:52;;;;;;;3.92;3.53;;;;;;;;;;5137896;28;20208;-71
2021/06/17 08:33:20;;;;;;;4.40;3.75;;;;;;;;;;5137425;28;20238;-72
2021/06/17 08:35:49;;;;;;;4.32;3.92;;;;;;;;;;5137293;28;20287;-72
2021/06/17 08:38:18;;;;;;;4.22;3.65;;;;;;;;;;5137466;28;20198;-71
2021/06/17 08:40:46;;;;;;;6.70;3.80;;;;;;;;;;5137768;28;20249;-72
2021/06/17 08:43:14;;;;;;;3.90;3.30;;;;;;;;;;5137528;28;20249;-72
2021/06/17 08:45:42;;;;;;;4.50;4.05;;;;;;;;;;5137769;28;20206;-72
2021/06/17 08:48:10;;;;;;;4.60;4.20;;;;;;;;;;5138237;28;20721;-72
2021/06/17 08:50:38;;;;;;;5.30;3.65;;;;;;;;;;5124308;28;20201;-71
2021/06/17 08:53:06;;;;;;;4.20;3.60;;;;;;;;;;5139692;27;20269;-71
2021/06/17 08:55:37;;;;;;;4.47;4.07;;;;;;;;;;5141934;27;20273;-71
2021/06/17 08:58:04;;;;;;;4.95;3.85;;;;;;;;;;5141741;27;20211;-72
2021/06/17 09:00:37;;;;;;;4.55;3.85;;;;;;;;;;5141938;27;20210;-70
2021/06/17 09:03:06;;;;;;;7.20;3.95;;;;;;;;;;5141766;27;20234;-71
2021/06/17 09:05:39;;;;;;;4.88;3.80;;;;;;;;;;5141314;27;20201;-72
2021/06/17 09:08:07;;;;;;;4.35;3.88;;;;;;;;;;5141554;27;20205;-72
2021/06/17 09:10:39;;;;;;;3.65;3.38;;;;;;;;;;5141613;27;20652;-72
2021/06/17 09:13:07;;;;;;;4.95;4.03;;;;;;;;;;5140548;27;20292;-71
2021/06/17 09:15:38;;;;;;;4.55;3.17;;;;;;;;;;5140863;27;20231;-71
2021/06/17 09:18:13;;;;;;;3.57;3.27;;;;;;;;;;5140826;27;20209;-71
2021/06/17 09:20:45;;;;;;;4.95;3.55;;;;;;;;;;5140834;27;20558;-72
2021/06/17 09:23:36;;;;;;;4.83;3.13;;;;;;;;;;5140941;27;20624;-72
2021/06/17 09:26:07;;;;;;;6.40;4.03;;;;;;;;;;5141159;27;20255;-72
2021/06/17 09:28:45;;;;;;;4.20;3.77;;;;;;;;;;5141248;27;20630;-72
2021/06/17 09:31:14;;;;;;;4.37;3.97;;;;;;;;;;5128243;27;20287;-72
2021/06/17 09:33:44;;;;;;;6.43;3.50;;;;;;;;;;5140911;27;20241;-72
2021/06/17 09:36:12;;;;;;;5.70;3.15;;;;;;;;;;5140904;27;20227;-71
2021/06/17 09:38:44;;;;;;;4.70;3.67;;;;;;;;;;5140753;27;20204;-72
2021/06/17 09:41:28;;;;;;;4.50;3.80;;;;;;;;;;5140822;27;20268;-71
2021/06/17 09:43:56;;;;;;;3.50;3.27;;;;;;;;;;5141140;27;20205;-72
2021/06/17 09:46:24;;;;;;;3.53;3.23;;;;;;;;;;5140923;27;20197;-71
2021/06/17 09:48:52;;;;;;;4.93;3.83;;;;;;;;;;5141062;27;20235;-71
2021/06/17 09:51:30;;;;;;;4.00;3.03;;;;;;;;;;5140382;27;20276;-71
2021/06/17 09:54:16;;;;;;;4.43;3.65;;;;;;;;;;5127742;27;20204;-71
2021/06/17 09:56:48;;;;;;;4.20;3.60;;;;;;;;;;5140882;27;20704;-72
2021/06/17 09:59:31;;;;;;;6.37;4.03;;;;;;;;;;5140538;27;20230;-72
2021/06/17 10:01:59;;;;;;;4.20;3.80;;;;;;;;;;5140105;27;20225;-72
2021/06/17 10:04:27;;;;;;;4.57;3.70;;;;;;;;;;5140003;27;20650;-71
2021/06/17 10:06:55;;;;;;;4.32;3.70;;;;;;;;;;5139573;27;20204;-71
2021/06/17 10:09:23;;;;;;;4.00;3.70;;;;;;;;;;5139833;27;20210;-71
2021/06/17 10:11:52;;;;;;;4.13;3.72;;;;;;;;;;5138875;27;20752;-71
2021/06/17 10:14:20;;;;;;;6.97;3.95;;;;;;;;;;5139734;27;20642;-71
2021/06/17 10:16:48;;;;;;;4.93;3.85;;;;;;;;;;5139482;27;20837;-71
2021/06/17 10:19:19;;;;;;;4.28;3.88;;;;;;;;;;5139256;27;20277;-71
2021/06/17 10:21:48;;;;;;;4.13;3.53;;;;;;;;;;5139228;27;20231;-71
2021/06/17 10:24:17;;;;;;;8.13;3.53;;;;;;;;;;5139715;27;20203;-71
2021/06/17 10:26:45;;;;;;;6.07;3.22;;;;;;;;;;5139804;27;20200;-71
2021/06/17 10:29:34;;;;;;;6.43;3.92;;;;;;;;;;5139538;27;20209;-71
2021/06/17 10:32:02;;;;;;;5.10;3.83;;;;;;;;;;5139079;27;20251;-71
2021/06/17 10:34:30;;;;;;;4.73;3.70;;;;;;;;;;5139619;27;20204;-72
2021/06/17 10:37:12;;;;;;;3.80;3.50;;;;;;;;;;5138844;27;20363;-72
2021/06/17 10:39:40;;;;;;;5.20;4.10;;;;;;;;;;5139235;27;20257;-72
2021/06/17 10:42:13;;;;;;;5.10;3.57;;;;;;;;;;5138994;27;20231;-72
2021/06/17 10:44:50;;;;;;;4.80;3.70;;;;;;;;;;5139222;27;20208;-72
2021/06/17 10:47:40;;;;;;;5.27;3.63;;;;;;;;;;5139587;27;20535;-72
2021/06/17 10:50:09;;;;;;;4.67;3.67;;;;;;;;;;5139003;27;20268;-71
2021/06/17 10:52:37;;;;;;;8.53;4.10;;;;;;;;;;5139579;27;20759;-72
2021/06/17 10:55:06;;;;;;;5.07;4.00;;;;;;;;;;5139708;27;20727;-71
2021/06/17 10:57:53;;;;;;;3.88;3.58;;;;;;;;;;5139380;27;20252;-71
2021/06/17 11:00:40;;;;;;;4.57;3.72;;;;;;;;;;5139571;27;20253;-73
2021/06/17 11:03:40;;;;;;;5.20;4.03;;;;;;;;;;5139275;27;20225;-72
2021/06/17 11:06:09;;;;;;;4.50;3.75;;;;;;;;;;5035553;28;20229;-71
2021/06/17 11:08:37;;;;;;;5.43;3.92;;;;;;;;;;5035389;28;20711;-71
2021/06/17 11:11:06;;;;;;;7.30;3.65;;;;;;;;;;5073641;27;20206;-72
2021/06/17 11:13:34;;;;;;;6.63;3.70;;;;;;;;;;5137665;27;20205;-72
2021/06/17 11:16:03;;;;;;;3.45;3.25;;;;;;;;;;5137405;27;20260;-72
2021/06/17 11:18:51;;;;;;;5.55;3.75;;;;;;;;;;5138072;27;20264;-72
2021/06/17 11:21:34;;;;;;;5.50;3.30;;;;;;;;;;5137704;27;20580;-72
2021/06/17 11:24:23;;;;;;;4.00;3.60;;;;;;;;;;5134525;27;20283;-72
2021/06/17 11:26:51;;;;;;;3.47;3.28;;;;;;;;;;5137824;27;20208;-72
2021/06/17 11:29:49;;;;;;;3.85;3.55;;;;;;;;;;5138412;27;20239;-71
2021/06/17 11:32:26;;;;;;;5.32;3.38;;;;;;;;;;5138069;27;20244;-71
2021/06/17 11:34:54;;;;;;;4.07;3.70;;;;;;;;;;5138618;27;20256;-72
2021/06/17 11:37:21;;;;;;;3.67;3.30;;;;;;;;;;5138526;27;20218;-72
2021/06/17 11:39:49;;;;;;;4.77;3.57;;;;;;;;;;5138833;27;20293;-72
2021/06/17 11:42:19;;;;;;;4.20;3.80;;;;;;;;;;5138807;27;20225;-72
2021/06/17 11:45:02;;;;;;;3.63;3.33;;;;;;;;;;5139047;27;20527;-72
2021/06/17 11:47:31;;;;;;;4.67;3.83;;;;;;;;;;5122363;28;20196;-72
2021/06/17 11:50:07;;;;;;;4.38;3.60;;;;;;;;;;5138734;28;20209;-71
2021/06/17 11:52:39;;;;;;;9.30;3.58;;;;;;;;;;5138719;28;20252;-72
2021/06/17 11:55:08;;;;;;;3.90;3.47;;;;;;;;;;5138673;28;20210;-72
2021/06/17 11:57:39;;;;;;;5.65;3.80;;;;;;;;;;5138329;28;20645;-72
2021/06/17 12:00:08;;;;;;;4.07;3.75;;;;;;;;;;5138729;28;20548;-72
2021/06/17 12:02:46;;;;;;;3.47;3.17;;;;;;;;;;5138611;28;20231;-72
2021/06/17 12:05:20;;;;;;;3.50;3.22;;;;;;;;;;5138335;28;20271;-71
2021/06/17 12:07:48;;;;;;;3.70;3.40;;;;;;;;;;5138462;28;20197;-72
2021/06/17 12:10:18;;;;;;;3.90;3.58;;;;;;;;;;5138136;28;20213;-72
2021/06/17 12:12:50;;;;;;;4.47;3.35;;;;;;;;;;5137457;28;20230;-72
2021/06/17 12:15:18;;;;;;;5.07;4.20;;;;;;;;;;5137673;28;20233;-71
2021/06/17 12:17:48;;;;;;;4.32;3.40;;;;;;;;;;5137395;28;20234;-72
2021/06/17 12:20:17;;;;;;;3.78;3.40;;;;;;;;;;5137589;28;20615;-72
2021/06/17 12:22:47;;;;;;;3.33;3.13;;;;;;;;;;5137736;28;20233;-72
2021/06/17 12:25:18;;;;;;;3.67;3.25;;;;;;;;;;5137670;28;20260;-71
2021/06/17 12:27:46;;;;;;;3.75;3.35;;;;;;;;;;5140135;27;20529;-71
2021/06/17 12:30:28;;;;;;;5.05;3.80;;;;;;;;;;5141956;27;20207;-72
2021/06/17 12:33:02;;;;;;;3.88;3.45;;;;;;;;;;5129430;27;20248;-71
2021/06/17 12:35:36;;;;;;;3.60;3.30;;;;;;;;;;5141821;27;20296;-72
2021/06/17 12:38:04;;;;;;;3.75;3.35;;;;;;;;;;5141611;27;20226;-71
2021/06/17 12:40:33;;;;;;;3.92;3.53;;;;;;;;;;5142195;27;20207;-72
2021/06/17 12:43:08;;;;;;;6.57;3.35;;;;;;;;;;5141795;27;20254;-72
2021/06/17 12:45:36;;;;;;;6.28;3.78;;;;;;;;;;5142329;27;20206;-71
2021/06/17 12:48:15;;;;;;;4.95;3.05;;;;;;;;;;5142284;27;20207;-71
2021/06/17 12:53:42;;;;;;;4.47;3.20;;;;;;;;;;5142072;27;20207;-71
2021/06/17 12:56:10;;;;;;;7.18;3.83;;;;;;;;;;5141417;27;20248;-72
2021/06/17 12:58:45;;;;;;;3.60;3.30;;;;;;;;;;5141522;27;20203;-72
2021/06/17 13:01:13;;;;;;;6.07;3.05;;;;;;;;;;5141667;27;20206;-72
2021/06/17 13:03:42;;;;;;;4.00;3.40;;;;;;;;;;5141593;27;20218;-71
2021/06/17 13:06:10;;;;;;;3.72;3.42;;;;;;;;;;5140901;27;20268;-72
2021/06/17 13:08:45;;;;;;;3.70;3.28;;;;;;;;;;5141236;27;20639;-72
2021/06/17 13:11:13;;;;;;;3.58;3.28;;;;;;;;;;5137121;27;20271;-72
2021/06/17 13:13:41;;;;;;;3.97;3.67;;;;;;;;;;5134053;27;20196;-72
2021/06/17 13:16:18;;;;;;;3.50;3.20;;;;;;;;;;5139876;27;20268;-72
2021/06/17 13:18:51;;;;;;;3.70;3.35;;;;;;;;;;5140010;27;20196;-72
2021/06/17 13:21:18;;;;;;;5.13;3.15;;;;;;;;;;5139568;27;20740;-72
2021/06/17 13:23:46;;;;;;;4.05;3.47;;;;;;;;;;5140119;27;20650;-73
2021/06/17 13:26:15;;;;;;;4.63;3.65;;;;;;;;;;5140065;27;20655;-72
2021/06/17 13:28:44;;;;;;;7.22;3.85;;;;;;;;;;5140322;27;20199;-72
2021/06/17 13:31:24;;;;;;;3.50;3.22;;;;;;;;;;5140420;27;20196;-72
2021/06/17 13:33:53;;;;;;;5.13;2.97;;;;;;;;;;5140519;27;20234;-72
2021/06/17 13:36:21;;;;;;;10.60;3.10;;;;;;;;;;5128905;27;20260;-72
2021/06/17 13:38:49;;;;;;;3.75;3.22;;;;;;;;;;5140545;27;21839;-73
2021/06/17 13:41:17;;;;;;;6.65;3.45;;;;;;;;;;5141108;27;20228;-72
2021/06/17 13:43:45;;;;;;;5.15;3.30;;;;;;;;;;5141196;27;20561;-72
2021/06/17 13:46:13;;;;;;;3.83;3.50;;;;;;;;;;5140998;27;20235;-72
2021/06/17 13:48:41;;;;;;;3.10;2.83;;;;;;;;;;5140918;27;20279;-72
2021/06/17 13:51:10;;;;;;;6.25;3.30;;;;;;;;;;5140336;27;20267;-72
2021/06/17 13:53:38;;;;;;;7.07;3.80;;;;;;;;;;5140716;27;20211;-73
2021/06/17 13:56:06;;;;;;;6.72;3.35;;;;;;;;;;5140772;27;20208;-72
2021/06/17 13:58:34;;;;;;;3.38;3.08;;;;;;;;;;5140324;27;20286;-72
2021/06/17 14:01:04;;;;;;;6.20;3.42;;;;;;;;;;5140375;27;20226;-72
2021/06/17 14:03:31;;;;;;;4.05;3.22;;;;;;;;;;5140351;27;20212;-73
2021/06/17 14:05:59;;;;;;;6.30;3.33;;;;;;;;;;5140173;27;20269;-72
2021/06/17 14:08:28;;;;;;;4.38;3.25;;;;;;;;;;5140231;27;20200;-72
2021/06/17 14:10:56;;;;;;;5.50;3.03;;;;;;;;;;5140191;27;20260;-72
2021/06/17 14:13:24;;;;;;;7.78;3.83;;;;;;;;;;5131776;27;20330;-72
2021/06/17 14:15:52;;;;;;;3.40;3.10;;;;;;;;;;5140246;27;20571;-72
2021/06/17 14:18:19;;;;;;;6.50;3.28;;;;;;;;;;5140187;27;20685;-72
2021/06/17 14:20:47;;;;;;;5.53;5.00;;;;;;;;;;5139733;27;20208;-72
2021/06/17 14:23:15;;;;;;;5.15;3.50;;;;;;;;;;5140163;27;20224;-72
2021/06/17 14:25:45;;;;;;;7.00;3.60;;;;;;;;;;5140232;27;20685;-72
2021/06/17 14:28:13;;;;;;;4.03;3.65;;;;;;;;;;5140140;27;20204;-72
2021/06/17 14:30:40;;;;;;;3.78;3.33;;;;;;;;;;5139810;27;20203;-72
2021/06/17 14:33:09;;;;;;;4.65;3.30;;;;;;;;;;5139675;27;20281;-72
2021/06/17 14:35:38;;;;;;;4.53;3.25;;;;;;;;;;5139567;27;20207;-73
2021/06/17 14:38:06;;;;;;;4.55;3.10;;;;;;;;;;5139863;27;20212;-72
2021/06/17 14:40:35;;;;;;;4.05;3.40;;;;;;;;;;5139750;27;20608;-72
2021/06/17 14:43:04;;;;;;;5.35;3.22;;;;;;;;;;5139535;27;20251;-72
2021/06/17 14:45:32;;;;;;;3.25;3.05;;;;;;;;;;5139956;27;20208;-72
2021/06/17 14:48:00;;;;;;;3.78;3.28;;;;;;;;;;5139426;27;20655;-72
2021/06/17 14:50:28;;;;;;;3.55;3.25;;;;;;;;;;5138248;27;20774;-73
2021/06/17 14:52:56;;;;;;;4.40;3.80;;;;;;;;;;5139627;27;20231;-73
2021/06/17 14:55:23;;;;;;;6.00;3.85;;;;;;;;;;5139619;27;20601;-73
2021/06/17 14:57:57;;;;;;;3.63;3.33;;;;;;;;;;5139106;27;20281;-72
2021/06/17 15:00:29;;;;;;;3.50;3.20;;;;;;;;;;5139271;27;20262;-72
2021/06/17 15:02:57;;;;;;;5.60;3.80;;;;;;;;;;5139160;27;20272;-73
2021/06/17 15:05:24;;;;;;;6.15;3.58;;;;;;;;;;5139365;27;20233;-73
2021/06/17 15:07:52;;;;;;;5.63;3.97;;;;;;;;;;5139429;27;20196;-73
2021/06/17 15:10:20;;;;;;;3.67;3.38;;;;;;;;;;5139362;27;20200;-72
2021/06/17 15:12:47;;;;;;;3.75;3.45;;;;;;;;;;5129102;27;20224;-72